Time;durP1;ratioP1;P1;durP2;ratioP2;P2;SDS_P1;SDS_P2;PMS_P1;PMS_P2;Temp;Humidity;BMP_temperature;BMP_pressure;BME280_temperature;BME280_humidity;BME280_pressure;Samples;Min_cycle;Max_cycle;Signal;HPM_P1;HPM_P2
2021/12/29 00:00:02;;;;;;;3.08;1.02;;;;;;;7.86;100.00;98779.94;4819015;29;20574;-92
2021/12/29 00:03:08;;;;;;;4.68;0.85;;;;;;;8.16;100.00;98842.25;4799882;29;20132;-92
2021/12/29 00:06:24;;;;;;;;;;;;;;;;;;;;;
2021/12/29 00:09:59;;;;;;;4.82;1.17;;;;;;;8.06;100.00;98824.34;4761520;30;20048;-92
2021/12/29 03:08:01;;;;;;;3.97;1.50;;;;;;;8.29;100.00;99231.69;1674331;23;21607;-91
2021/12/29 03:11:02;;;;;;;5.45;1.30;;;;;;;8.34;100.00;99228.84;4867400;29;20094;-90
2021/12/29 03:13:43;;;;;;;3.17;1.33;;;;;;;8.31;100.00;99221.06;4867487;29;20053;-90
2021/12/29 03:16:36;;;;;;;6.07;1.50;;;;;;;8.01;100.00;99166.47;4870930;29;20049;-92
2021/12/29 03:19:48;;;;;;;4.10;1.85;;;;;;;8.29;100.00;99223.78;4873067;29;20147;-90
2021/12/29 03:25:41;;;;;;;3.25;1.60;;;;;;;8.14;100.00;99207.97;4860971;29;20243;-91
2021/12/29 03:28:51;;;;;;;;;;;;;;;;;;;;;
2021/12/29 03:32:06;;;;;;;3.13;1.75;;;;;;;8.06;100.00;99225.06;4861524;29;20054;-92
2021/12/29 03:35:04;;;;;;;;;;;;;;;;;;;;;
2021/12/29 03:37:55;;;;;;;;;;;;;;;;;;;;;
2021/12/29 03:41:03;;;;;;;4.38;1.83;;;;;;;7.94;100.00;99207.28;4843184;29;20058;-93
2021/12/29 03:44:14;;;;;;;3.40;1.60;;;;;;;7.98;100.00;99208.81;4843094;29;20156;-91
2021/12/29 03:47:12;;;;;;;4.22;1.45;;;;;;;8.06;100.00;99227.69;4844517;29;20106;-90
2021/12/29 03:49:56;;;;;;;3.33;1.73;;;;;;;8.22;100.00;99245.31;4838553;29;20114;-91
2021/12/29 04:03:52;;;;;;;;;;;;;;;;;;;;;
2021/12/29 04:06:55;;;;;;;;;;;;;;;;;;;;;
2021/12/29 04:10:17;;;;;;;;;;;;;;;;;;;;;
2021/12/29 04:13:58;;;;;;;1.92;0.98;;;;;;;8.26;100.00;99279.34;4847987;29;20081;-91
2021/12/29 04:17:18;;;;;;;5.30;1.10;;;;;;;8.00;100.00;99228.06;4838828;29;20054;-92
2021/12/29 04:24:02;;;;;;;1.98;1.30;;;;;;;8.34;100.00;99284.25;4806262;29;20101;-92
2021/12/29 04:31:53;;;;;;;3.13;1.20;;;;;;;8.32;100.00;99305.44;4829868;29;20082;-92
2021/12/29 04:34:59;;;;;;;2.95;1.25;;;;;;;8.25;100.00;99287.34;4804532;29;20047;-91
2021/12/29 04:37:54;;;;;;;1.80;0.88;;;;;;;8.41;100.00;99304.06;4788196;29;20050;-92
2021/12/29 04:45:16;;;;;;;2.28;0.85;;;;;;;8.47;100.00;99339.81;4683198;30;20071;-93
2021/12/29 05:16:28;;;;;;;2.15;1.20;;;;;;;8.30;100.00;99377.63;3851945;23;20530;-91
2021/12/29 05:19:49;;;;;;;2.15;1.50;;;;;;;8.28;100.00;99387.41;4806429;29;20070;-92
2021/12/29 05:23:20;;;;;;;1.75;1.50;;;;;;;7.89;100.00;99334.97;4789220;29;20067;-91
2021/12/29 05:26:18;;;;;;;3.22;1.60;;;;;;;8.33;100.00;99401.22;4801654;29;20059;-92
2021/12/29 05:32:17;;;;;;;2.30;0.98;;;;;;;8.41;100.00;99406.94;4750749;29;20075;-92
2021/12/29 05:35:22;;;;;;;1.77;1.37;;;;;;;8.28;100.00;99384.75;4807640;29;20043;-92
2021/12/29 05:38:29;;;;;;;2.03;1.80;;;;;;;8.23;100.00;99387.63;4816339;29;20497;-92
2021/12/29 05:41:36;;;;;;;2.55;1.42;;;;;;;8.10;100.00;99374.25;4798185;29;20051;-93
2021/12/29 06:20:44;;;;;;;4.30;2.90;;;;;;;7.82;100.00;99417.97;4866528;29;20057;-90
2021/12/29 06:23:13;;;;;;;5.45;2.97;;;;;;;8.14;100.00;99490.13;4864558;29;20053;-92
2021/12/29 06:25:44;;;;;;;2.97;2.33;;;;;;;7.94;100.00;99449.81;4867229;29;20099;-92
2021/12/29 06:28:11;;;;;;;4.25;2.40;;;;;;;8.10;100.00;99484.16;4868008;29;20472;-92
2021/12/29 06:30:43;;;;;;;4.97;2.80;;;;;;;7.95;100.00;99461.22;4870184;29;20048;-91
2021/12/29 06:33:14;;;;;;;5.05;2.80;;;;;;;8.09;100.00;99496.47;4874946;29;20744;-93
2021/12/29 06:35:43;;;;;;;4.47;2.75;;;;;;;7.76;100.00;99445.47;4865057;29;20049;-92
2021/12/29 06:38:13;;;;;;;4.72;2.63;;;;;;;7.95;100.00;99479.66;4865567;29;20057;-91
2021/12/29 06:40:40;;;;;;;;;;;;;;;8.13;100.00;99509.50;4845841;29;20049;-92
2021/12/29 06:43:09;;;;;;;5.50;2.45;;;;;;;7.80;100.00;99457.56;4856040;29;19924;-92
2021/12/29 06:45:36;;;;;;;3.55;2.08;;;;;;;8.05;100.00;99510.75;4862965;29;20064;-92
2021/12/29 06:48:06;;;;;;;4.00;2.08;;;;;;;7.88;100.00;99476.47;4865307;29;20053;-92
2021/12/29 06:50:33;;;;;;;5.15;1.92;;;;;;;8.04;100.00;99498.47;4863270;29;20053;-92
2021/12/29 06:53:05;;;;;;;3.40;1.88;;;;;;;8.17;100.00;99525.09;4853496;29;20050;-91
2021/12/29 06:55:32;;;;;;;1.95;1.70;;;;;;;8.15;100.00;99507.66;4864284;29;20060;-92
2021/12/29 06:58:01;;;;;;;2.53;1.70;;;;;;;8.04;100.00;99495.84;4864456;29;20045;-92
2021/12/29 07:00:29;;;;;;;4.55;1.98;;;;;;;8.13;100.00;99507.72;4864439;29;20061;-91
2021/12/29 07:03:12;;;;;;;2.53;1.70;;;;;;;7.97;100.00;99478.66;4862423;29;20406;-91
2021/12/29 07:05:40;;;;;;;3.65;1.70;;;;;;;8.33;100.00;99538.41;4862807;29;20074;-91
2021/12/29 07:08:07;;;;;;;3.85;2.00;;;;;;;8.04;100.00;99493.22;4868364;29;20129;-92
2021/12/29 07:10:34;;;;;;;4.05;2.20;;;;;;;8.10;100.00;99495.56;4860789;29;20732;-91
2021/12/29 07:13:02;;;;;;;5.43;2.42;;;;;;;8.22;100.00;99530.97;4856506;29;20058;-91
2021/12/29 07:15:33;;;;;;;4.97;2.38;;;;;;;8.08;100.00;99531.69;4860757;29;20049;-92
2021/12/29 07:18:03;;;;;;;3.00;2.50;;;;;;;7.97;100.00;99504.16;4863915;29;20426;-91
2021/12/29 07:20:30;;;;;;;6.60;2.10;;;;;;;7.99;100.00;99497.88;4864596;29;20061;-91
2021/12/29 07:22:58;;;;;;;6.18;3.03;;;;;;;8.17;100.00;99538.28;4860373;29;20794;-91
2021/12/29 07:25:25;;;;;;;5.00;2.72;;;;;;;8.14;100.00;99534.94;4859080;29;20057;-91
2021/12/29 07:27:52;;;;;;;2.72;2.40;;;;;;;7.98;100.00;99514.63;4868040;29;20086;-91
2021/12/29 07:30:19;;;;;;;4.47;2.50;;;;;;;8.21;100.00;99544.25;4863667;29;20049;-91
2021/12/29 07:32:47;;;;;;;4.60;2.63;;;;;;;8.03;100.00;99517.88;4861091;29;20113;-90
2021/12/29 07:35:14;;;;;;;4.55;2.60;;;;;;;8.09;100.00;99535.19;4860590;29;20050;-90
2021/12/29 07:37:41;;;;;;;4.32;2.53;;;;;;;8.14;100.00;99542.88;4856551;29;20107;-91
2021/12/29 07:40:09;;;;;;;3.40;2.30;;;;;;;8.31;100.00;99582.44;4866022;29;20052;-91
2021/12/29 07:42:37;;;;;;;6.25;2.17;;;;;;;8.20;100.00;99574.19;4875958;29;20077;-91
2021/12/29 07:45:07;;;;;;;2.65;1.58;;;;;;;8.19;100.00;99577.75;4866078;29;20057;-91
2021/12/29 07:47:36;;;;;;;1.90;1.52;;;;;;;8.19;100.00;99577.75;4868701;29;20080;-91
2021/12/29 07:50:03;;;;;;;2.40;1.65;;;;;;;7.99;100.00;99550.63;4868428;29;20076;-90
2021/12/29 07:52:50;;;;;;;2.03;1.75;;;;;;;8.12;100.00;99581.63;4860967;29;20136;-90
2021/12/29 07:55:19;;;;;;;3.47;2.00;;;;;;;7.99;100.00;99570.84;4856977;29;20076;-93
2021/12/29 07:57:50;;;;;;;3.30;1.75;;;;;;;7.99;100.00;99578.75;4860977;29;20054;-91
2021/12/29 08:06:56;;;;;;;3.47;2.28;;;;;;;8.35;100.00;99648.16;4836231;29;20145;-92
2021/12/29 08:09:23;;;;;;;2.42;2.13;;;;;;;8.34;100.00;99635.91;4846584;29;20141;-90
2021/12/29 08:11:50;;;;;;;3.60;2.20;;;;;;;8.42;100.00;99635.53;4840452;29;20567;-90
2021/12/29 08:14:18;;;;;;;6.47;2.60;;;;;;;8.21;100.00;99595.22;4839873;29;20050;-89
2021/12/29 08:16:45;;;;;;;3.97;2.75;;;;;;;8.32;100.00;99626.38;4830201;29;20053;-90
2021/12/29 08:19:12;;;;;;;5.47;2.70;;;;;;;8.06;100.00;99583.63;4832537;29;20111;-89
2021/12/29 08:21:39;;;;;;;7.50;2.90;;;;;;;8.39;100.00;99646.22;4835177;29;20053;-89
2021/12/29 08:24:06;;;;;;;5.32;3.00;;;;;;;8.18;100.00;99608.56;4836247;29;20134;-90
2021/12/29 08:26:33;;;;;;;6.00;3.10;;;;;;;8.21;100.00;99604.91;4840644;29;20085;-90
2021/12/29 08:29:29;;;;;;;6.95;3.10;;;;;;;8.21;100.00;99604.91;4840172;29;20068;-90
2021/12/29 08:32:06;;;;;;;7.38;3.25;;;;;;;8.29;100.00;99621.22;4839460;29;20089;-90
2021/12/29 08:34:47;;;;;;;7.85;3.75;;;;;;;8.27;100.00;99613.38;4837456;29;20118;-90
2021/12/29 08:37:16;;;;;;;5.72;3.67;;;;;;;8.13;100.00;99588.63;4842170;29;20050;-90
2021/12/29 08:40:05;;;;;;;7.55;4.32;;;;;;;8.43;100.00;99653.91;4847330;29;20072;-92
2021/12/29 08:42:32;;;;;;;6.72;3.78;;;;;;;8.35;100.00;99642.03;4846564;29;20057;-89
2021/12/29 08:44:59;;;;;;;5.47;3.80;;;;;;;8.05;100.00;99608.28;4842541;29;20062;-91
2021/12/29 09:36:37;;;;;;;6.20;3.40;;;;;;;8.07;100.00;99651.28;4935207;24;20299;-90
2021/12/29 09:39:04;;;;;;;7.95;4.38;;;;;;;8.40;100.00;99703.34;4900856;29;20052;-90
2021/12/29 09:41:32;;;;;;;7.20;3.90;;;;;;;8.37;100.00;99699.06;4901225;29;20049;-90
2021/12/29 09:44:04;;;;;;;10.82;4.47;;;;;;;8.06;100.00;99641.66;4901985;29;20068;-89
2021/12/29 09:46:31;;;;;;;8.50;3.90;;;;;;;8.48;100.00;99705.63;4897206;29;20056;-90
2021/12/29 09:49:00;;;;;;;9.43;3.70;;;;;;;8.14;100.00;99645.72;4898744;29;20108;-90
2021/12/29 09:51:27;;;;;;;6.60;3.72;;;;;;;8.55;100.00;99705.22;4914887;29;20056;-90
2021/12/29 09:53:56;;;;;;;6.38;4.15;;;;;;;8.29;100.00;99663.41;4916299;29;20147;-90
2021/12/29 09:56:26;;;;;;;7.60;4.07;;;;;;;8.10;100.00;99632.66;4920199;29;20072;-90
2021/12/29 09:58:53;;;;;;;9.80;4.30;;;;;;;8.31;100.00;99678.25;4919172;29;20053;-90
2021/12/29 10:01:23;;;;;;;10.07;4.20;;;;;;;8.46;100.00;99702.19;4911414;29;20056;-90
2021/12/29 10:03:50;;;;;;;7.57;3.90;;;;;;;8.36;100.00;99692.06;4914107;29;20124;-90
2021/12/29 10:06:17;;;;;;;6.65;4.47;;;;;;;8.16;100.00;99657.03;4913087;29;20057;-90
2021/12/29 10:08:47;;;;;;;8.93;4.07;;;;;;;8.44;100.00;99704.91;4895057;29;20068;-89
2021/12/29 10:11:18;;;;;;;8.73;4.13;;;;;;;8.35;100.00;99687.72;4905135;29;20048;-90
2021/12/29 10:13:46;;;;;;;;;;;;;;;8.60;100.00;99720.84;4912966;29;20041;-90
2021/12/29 10:16:20;;;;;;;10.48;4.43;;;;;;;8.55;100.00;99685.91;4904388;29;19948;-90
2021/12/29 10:18:53;;;;;;;7.72;4.55;;;;;;;8.36;100.00;99647.22;4906270;29;20076;-90
2021/12/29 10:21:25;;;;;;;8.25;4.43;;;;;;;8.68;100.00;99679.06;4902043;29;20059;-90
2021/12/29 10:23:54;;;;;;;12.43;4.22;;;;;;;8.68;100.00;99665.88;4905266;29;22254;-90
2021/12/29 10:26:39;;;;;;;7.40;4.15;;;;;;;8.76;100.00;99679.53;4883835;29;20080;-90
2021/12/29 10:29:09;;;;;;;8.10;3.90;;;;;;;8.90;100.00;99705.25;4899856;29;20140;-90
2021/12/29 10:31:51;;;;;;;8.93;3.70;;;;;;;8.73;100.00;99679.69;4897659;29;20056;-90
2021/12/29 10:34:26;;;;;;;10.70;4.05;;;;;;;8.53;100.00;99641.09;4894680;29;20573;-90
2021/12/29 10:37:00;;;;;;;8.68;3.55;;;;;;;8.68;100.00;99666.72;4894610;29;20056;-91
2021/12/29 10:39:31;;;;;;;9.38;4.22;;;;;;;8.68;100.00;99666.72;4902450;29;20071;-90
2021/12/29 10:42:03;;;;;;;;;;;;;;;8.85;100.00;99704.59;4901083;29;20124;-90
2021/12/29 10:44:38;;;;;;;5.95;3.53;;;;;;;8.50;100.00;99643.91;4905441;29;19927;-91
2021/12/29 10:47:22;;;;;;;8.43;3.90;;;;;;;8.70;100.00;99685.13;4898934;29;20102;-91
2021/12/29 10:49:53;;;;;;;8.23;3.72;;;;;;;8.92;100.00;99706.88;4903802;29;20186;-90
2021/12/29 10:52:29;;;;;;;10.60;3.60;;;;;;;8.93;100.00;99719.16;4901745;29;20059;-90
2021/12/29 10:55:00;;;;;;;8.07;3.67;;;;;;;8.81;100.00;99679.31;4879761;29;20037;-91
2021/12/29 11:01:35;;;;;;;12.77;3.45;;;;;;;8.72;100.00;99657.72;4839019;29;20110;-91
2021/12/29 11:04:03;;;;;;;5.65;3.40;;;;;;;9.14;100.00;99718.03;4909559;29;20049;-89
2021/12/29 11:06:41;;;;;;;6.10;2.40;;;;;;;8.99;100.00;99702.13;4913680;29;20108;-90
2021/12/29 11:09:24;;;;;;;7.32;2.70;;;;;;;9.07;100.00;99724.56;4903169;29;20072;-92
2021/12/29 11:11:51;;;;;;;6.32;2.50;;;;;;;8.85;100.00;99672.94;4897190;29;20057;-91
2021/12/29 11:38:44;;;;;;;5.50;1.95;;;;;;;9.39;100.00;99663.91;5484741;23;20466;-90
2021/12/29 11:41:24;;;;;;;6.15;1.73;;;;;;;9.49;99.23;99673.91;4898947;29;20057;-91
2021/12/29 11:43:53;;;;;;;7.35;1.95;;;;;;;9.60;99.01;99683.06;4903044;29;20052;-87
2021/12/29 11:46:26;;;;;;;5.93;2.35;;;;;;;9.69;97.96;99677.25;4892487;29;20064;-91
2021/12/29 11:48:54;;;;;;;9.68;2.65;;;;;;;9.62;100.00;99660.00;4893180;29;20107;-89
2021/12/29 11:51:36;;;;;;;7.97;2.13;;;;;;;9.41;100.00;99639.13;4893404;29;20076;-91
2021/12/29 11:54:11;;;;;;;6.22;2.40;;;;;;;9.38;100.00;99641.91;4899910;29;20056;-91
2021/12/29 11:56:48;;;;;;;5.85;2.03;;;;;;;9.59;98.48;99666.34;4893958;29;20108;-89
2021/12/29 11:59:15;;;;;;;7.72;2.13;;;;;;;9.49;99.00;99654.53;4892340;29;20060;-90
2021/12/29 12:02:02;;;;;;;5.70;2.30;;;;;;;9.36;99.88;99642.94;4894558;29;20049;-89
2021/12/29 12:45:40;;;;;;;6.07;2.22;;;;;;;9.39;95.23;99685.91;4885402;29;20064;-92
2021/12/29 12:48:09;;;;;;;;;;;;;;;9.63;96.25;99735.72;4874347;29;20059;-93
2021/12/29 12:50:40;;;;;;;6.17;1.63;;;;;;;9.62;95.39;99724.31;4880214;29;20391;-92
2021/12/29 12:53:09;;;;;;;5.63;1.55;;;;;;;9.03;97.66;99635.00;4877109;29;20056;-91
2021/12/29 12:55:53;;;;;;;7.13;1.73;;;;;;;9.50;98.10;99703.81;4872800;29;20087;-92
2021/12/29 12:58:30;;;;;;;4.35;1.77;;;;;;;9.43;98.20;99684.81;4876629;29;20112;-92
2021/12/29 13:01:05;;;;;;;3.90;1.75;;;;;;;9.24;95.40;99625.97;4878600;29;20657;-92
2021/12/29 13:03:34;;;;;;;5.60;2.13;;;;;;;9.45;96.83;99661.78;4865124;29;20076;-92
2021/12/29 13:06:03;;;;;;;5.95;1.60;;;;;;;9.58;97.95;99709.56;4882358;29;20048;-92
2021/12/29 13:08:36;;;;;;;5.07;1.70;;;;;;;9.49;97.28;99697.69;4867577;29;20032;-90
2021/12/29 13:11:09;;;;;;;7.22;2.17;;;;;;;9.47;95.10;99686.34;4878811;29;20413;-92
2021/12/29 13:13:39;;;;;;;8.63;2.65;;;;;;;9.53;96.54;99708.94;4880412;29;20085;-91
2021/12/29 13:16:12;;;;;;;6.65;2.33;;;;;;;9.36;94.33;99677.28;4879114;29;20076;-91
2021/12/29 13:18:39;;;;;;;10.20;2.20;;;;;;;9.38;95.88;99694.75;4879017;29;20060;-94
2021/12/29 13:21:21;;;;;;;7.55;1.80;;;;;;;9.10;96.73;99663.69;4877516;29;20132;-91
2021/12/29 13:23:48;;;;;;;5.35;1.98;;;;;;;9.47;97.91;99723.34;4878690;29;20057;-92
2021/12/29 13:26:15;;;;;;;4.07;1.60;;;;;;;9.26;96.60;99676.06;4878160;29;20041;-92
2021/12/29 13:28:43;;;;;;;10.10;2.03;;;;;;;9.27;99.34;99691.84;4881587;29;20064;-90
2021/12/29 13:31:14;;;;;;;9.00;1.88;;;;;;;9.02;97.36;99650.00;4883078;29;20048;-91
2021/12/29 13:33:48;;;;;;;8.07;1.85;;;;;;;9.25;99.34;99696.34;4866250;29;20490;-90
2021/12/29 13:36:18;;;;;;;6.07;2.10;;;;;;;9.30;100.00;99702.22;4878158;29;20061;-90
2021/12/29 13:38:45;;;;;;;4.50;2.38;;;;;;;9.23;98.97;99679.72;4879585;29;20147;-91
2021/12/29 13:41:28;;;;;;;5.95;2.30;;;;;;;9.33;99.56;99711.78;4873701;29;20057;-90
2021/12/29 13:44:00;;;;;;;6.72;1.92;;;;;;;9.52;98.51;99736.31;4881078;29;20072;-91
2021/12/29 13:46:50;;;;;;;4.55;1.80;;;;;;;9.31;100.00;99693.38;4880664;29;20482;-91
2021/12/29 14:42:52;;;;;;;11.65;4.75;;;;;;;8.99;100.00;99712.69;5105572;24;20357;-91
2021/12/29 14:45:19;;;;;;;9.85;4.70;;;;;;;8.61;100.00;99651.28;4904057;29;20045;-93
2021/12/29 14:47:50;;;;;;;9.65;3.90;;;;;;;8.87;100.00;99689.56;4887247;29;20105;-92
2021/12/29 14:50:21;;;;;;;12.07;4.93;;;;;;;9.07;100.00;99726.38;4886836;29;20059;-91
2021/12/29 14:52:51;;;;;;;11.88;4.65;;;;;;;8.83;100.00;99704.69;4889907;29;20067;-91
2021/12/29 14:55:24;;;;;;;10.30;4.90;;;;;;;8.58;100.00;99662.84;4885095;29;20557;-91
2021/12/29 14:58:00;;;;;;;11.95;5.15;;;;;;;8.83;100.00;99706.47;4885050;29;20113;-92
2021/12/29 15:00:39;;;;;;;12.68;4.90;;;;;;;8.69;100.00;99692.19;4869930;29;20073;-91
2021/12/29 15:03:09;;;;;;;8.43;4.50;;;;;;;8.51;100.00;99669.34;4886593;29;20112;-94
2021/12/29 15:05:48;;;;;;;13.13;4.45;;;;;;;8.88;100.00;99729.06;4886957;29;20041;-92
2021/12/29 15:08:28;;;;;;;9.20;4.47;;;;;;;8.61;100.00;99678.53;4887800;29;20083;-91
2021/12/29 15:11:12;;;;;;;8.02;4.50;;;;;;;8.65;100.00;99695.09;4880116;29;20056;-92
2021/12/29 15:13:40;;;;;;;14.77;5.63;;;;;;;8.54;100.00;99676.28;4889657;29;20067;-91
2021/12/29 15:16:19;;;;;;;9.77;5.35;;;;;;;8.76;100.00;99704.16;4894513;29;20056;-91
2021/12/29 15:18:53;;;;;;;15.80;5.45;;;;;;;8.60;100.00;99674.19;4882945;29;20061;-91
2021/12/29 15:21:21;;;;;;;9.18;4.72;;;;;;;8.50;100.00;99657.09;4874069;29;20084;-91
2021/12/29 15:23:50;;;;;;;15.30;5.93;;;;;;;8.56;100.00;99670.00;4876495;29;20056;-92
2021/12/29 15:26:19;;;;;;;12.65;5.45;;;;;;;8.74;100.00;99713.09;4871335;29;20496;-91
2021/12/29 15:28:48;;;;;;;12.13;5.60;;;;;;;8.61;100.00;99685.59;4877745;29;20059;-91
2021/12/29 15:31:17;;;;;;;11.60;5.53;;;;;;;8.77;100.00;99707.66;4877266;29;20053;-92
2021/12/29 15:33:46;;;;;;;10.20;5.80;;;;;;;8.68;100.00;99692.25;4879608;29;20075;-91
2021/12/29 15:36:16;;;;;;;14.95;5.90;;;;;;;8.39;100.00;99639.16;4877481;29;21478;-92
2021/12/29 15:38:44;;;;;;;17.60;6.05;;;;;;;8.60;100.00;99670.69;4874139;29;20057;-93
2021/12/29 15:41:13;;;;;;;15.52;6.00;;;;;;;8.38;100.00;99644.50;4881465;29;20175;-91
2021/12/29 15:43:41;;;;;;;12.60;5.40;;;;;;;8.46;100.00;99649.44;4879738;29;20053;-91
2021/12/29 15:46:11;;;;;;;13.13;5.93;;;;;;;8.49;100.00;99647.50;4878068;29;20105;-91
2021/12/29 15:48:57;;;;;;;11.95;5.43;;;;;;;8.61;100.00;99664.50;4883278;29;20060;-90
2021/12/29 15:51:25;;;;;;;16.48;5.93;;;;;;;8.74;100.00;99697.25;4883379;29;20053;-92
2021/12/29 16:04:48;;;;;;;12.93;5.25;;;;;;;8.79;100.00;99697.88;5149236;23;20111;-92
2021/12/29 16:19:18;;;;;;;11.75;4.82;;;;;;;8.87;100.00;99673.72;4954830;23;20085;-89
2021/12/29 16:21:46;;;;;;;11.25;5.15;;;;;;;8.70;100.00;99638.47;4899226;29;20113;-91
2021/12/29 16:24:13;;;;;;;10.15;4.88;;;;;;;8.61;100.00;99638.94;4888837;29;21482;-91
2021/12/29 16:26:40;;;;;;;11.30;5.20;;;;;;;8.89;100.00;99682.41;4887493;29;20048;-91
2021/12/29 16:29:08;;;;;;;17.90;4.63;;;;;;;8.63;100.00;99639.72;4866952;29;20099;-91
2021/12/29 16:31:41;;;;;;;16.45;4.82;;;;;;;8.71;100.00;99639.31;4884008;29;20044;-90
2021/12/29 16:34:24;;;;;;;10.05;3.90;;;;;;;8.67;100.00;99638.63;4878602;29;20405;-92
2021/12/29 16:36:56;;;;;;;9.65;4.50;;;;;;;8.78;100.00;99667.97;4882383;29;20052;-92
2021/12/29 16:39:24;;;;;;;10.77;4.38;;;;;;;8.44;100.00;99620.47;4885147;29;20045;-92
2021/12/29 16:41:51;;;;;;;13.20;5.72;;;;;;;8.75;100.00;99652.28;4890432;29;20120;-92
2021/12/29 16:44:19;;;;;;;14.52;5.07;;;;;;;8.72;100.00;99663.00;4874077;29;20071;-92
2021/12/29 16:46:48;;;;;;;14.15;5.10;;;;;;;8.34;100.00;99606.88;4886030;29;20395;-92
2021/12/29 16:49:19;;;;;;;12.07;6.38;;;;;;;8.49;100.00;99633.44;4881237;29;20053;-91
2021/12/29 16:52:08;;;;;;;15.00;6.70;;;;;;;8.41;100.00;99604.78;4876399;29;20061;-90
2021/12/29 16:54:36;;;;;;;16.55;8.00;;;;;;;8.57;100.00;99631.25;4871738;29;20056;-92
2021/12/29 16:57:05;;;;;;;18.88;8.75;;;;;;;8.37;100.00;99600.59;4884819;29;20413;-92
2021/12/29 16:59:34;;;;;;;22.27;8.98;;;;;;;8.69;100.00;99644.69;4887180;29;20405;-92
2021/12/29 17:02:03;;;;;;;24.08;9.70;;;;;;;8.50;100.00;99620.16;4886682;29;20053;-93
2021/12/29 17:04:31;;;;;;;21.42;9.90;;;;;;;8.53;100.00;99625.28;4887804;29;20466;-92
2021/12/29 17:07:02;;;;;;;20.88;10.98;;;;;;;8.54;100.00;99634.91;4888946;29;20079;-91
2021/12/29 17:09:29;;;;;;;24.33;10.73;;;;;;;8.64;100.00;99657.28;4871424;29;20057;-90
2021/12/29 17:11:56;;;;;;;22.23;11.32;;;;;;;8.57;100.00;99644.44;4892037;29;20113;-90
2021/12/29 17:14:24;;;;;;;18.63;11.30;;;;;;;8.28;100.00;99606.31;4892119;29;20053;-91
2021/12/29 17:16:51;;;;;;;23.35;12.13;;;;;;;8.47;100.00;99637.94;4887891;29;20053;-90
2021/12/29 17:19:18;;;;;;;27.75;13.45;;;;;;;8.61;100.00;99654.78;4894331;29;20079;-90
2021/12/29 17:21:48;;;;;;;23.15;13.18;;;;;;;8.60;100.00;99649.59;4896435;29;20049;-90
2021/12/29 17:24:16;;;;;;;25.38;13.10;;;;;;;8.44;100.00;99633.66;4897772;29;20057;-89
2021/12/29 17:26:43;;;;;;;18.75;12.15;;;;;;;8.27;100.00;99607.25;4890707;29;20116;-91
2021/12/29 17:29:15;;;;;;;23.38;12.90;;;;;;;8.48;100.00;99642.28;4886203;29;20101;-91
2021/12/29 17:31:43;;;;;;;22.38;13.13;;;;;;;8.44;100.00;99642.44;4881149;29;20049;-92
2021/12/29 17:34:10;;;;;;;17.73;11.57;;;;;;;8.64;100.00;99654.63;4882452;29;20112;-91
2021/12/29 17:36:42;;;;;;;20.73;11.40;;;;;;;8.43;100.00;99626.69;4876913;29;20037;-90
2021/12/29 17:49:43;;;;;;;16.40;10.75;;;;;;;8.37;100.00;99626.97;4833699;29;20074;-94
2021/12/29 17:58:54;;;;;;;13.25;9.38;;;;;;;8.47;100.00;99638.81;4965959;24;20466;-92
2021/12/29 18:01:34;;;;;;;13.75;9.48;;;;;;;8.19;100.00;99612.88;4887686;29;20049;-92
2021/12/29 18:04:02;;;;;;;9.48;7.18;;;;;;;8.46;100.00;99646.78;4890631;29;20057;-91
2021/12/29 18:06:30;;;;;;;13.73;7.80;;;;;;;8.49;100.00;99652.78;4870983;29;20125;-93
2021/12/29 18:09:17;;;;;;;16.38;8.68;;;;;;;8.24;100.00;99608.25;4873041;29;20053;-92
2021/12/29 18:11:44;;;;;;;11.75;7.97;;;;;;;8.39;100.00;99633.03;4871998;29;20056;-92
2021/12/29 18:14:38;;;;;;;12.93;8.95;;;;;;;8.59;100.00;99669.84;4869511;29;20164;-85
2021/12/29 18:17:05;;;;;;;12.15;8.27;;;;;;;8.49;100.00;99651.91;4864994;29;20053;-86
2021/12/29 18:19:41;;;;;;;11.70;8.32;;;;;;;8.47;100.00;99640.59;4842194;29;20053;-87
2021/12/29 18:22:11;;;;;;;13.57;8.20;;;;;;;8.23;100.00;99600.41;4861660;29;20074;-88
2021/12/29 18:24:42;;;;;;;11.80;8.30;;;;;;;8.66;100.00;99663.31;4858686;29;20445;-89
2021/12/29 18:27:11;;;;;;;9.55;8.27;;;;;;;8.63;100.00;99671.41;4863326;29;20148;-87
2021/12/29 18:29:38;;;;;;;10.15;8.25;;;;;;;8.56;100.00;99655.94;4861252;29;20102;-88
2021/12/29 18:33:11;;;;;;;11.95;8.30;;;;;;;8.69;100.00;99668.44;4869785;29;20498;-93
2021/12/29 18:46:35;;;;;;;15.38;8.75;;;;;;;8.37;100.00;99635.75;4857377;29;20102;-92
2021/12/29 18:49:32;;;;;;;9.38;7.60;;;;;;;8.62;100.00;99676.75;4851243;29;20045;-87
2021/12/29 18:52:56;;;;;;;10.65;7.78;;;;;;;8.22;100.00;99601.34;4864150;29;20049;-89
2021/12/29 18:56:01;;;;;;;;;;;;;;;;;;;;;
2021/12/29 18:58:45;;;;;;;11.10;8.00;;;;;;;8.25;100.00;99612.59;4872596;29;20057;-87
2021/12/29 19:01:20;;;;;;;9.50;8.02;;;;;;;8.24;100.00;99618.81;4868316;29;20053;-87
2021/12/29 19:03:55;;;;;;;8.43;6.90;;;;;;;8.28;100.00;99608.94;4871943;29;20064;-87
2021/12/29 19:06:41;;;;;;;11.10;7.78;;;;;;;8.68;100.00;99669.38;4873917;29;20098;-87
2021/12/29 19:09:41;;;;;;;10.15;7.85;;;;;;;8.67;100.00;99657.09;4872453;29;20669;-87
2021/12/29 19:12:46;;;;;;;9.95;8.10;;;;;;;8.54;100.00;99637.53;4874748;29;20041;-88
2021/12/29 19:15:41;;;;;;;9.50;7.70;;;;;;;8.67;100.00;99664.16;4821717;29;20054;-87
2021/12/29 19:18:39;;;;;;;11.27;9.02;;;;;;;8.35;100.00;99605.09;4806205;29;20098;-87
2021/12/29 19:21:20;;;;;;;9.43;8.07;;;;;;;8.52;100.00;99633.28;4821938;29;20061;-87
2021/12/29 19:23:57;;;;;;;10.30;8.85;;;;;;;8.52;100.00;99639.41;4805162;29;20054;-87
2021/12/29 19:26:47;;;;;;;12.80;9.85;;;;;;;8.31;100.00;99620.22;4809529;29;20062;-87
2021/12/29 19:29:25;;;;;;;13.23;10.25;;;;;;;8.70;100.00;99701.81;4815619;29;20061;-87
2021/12/29 19:32:00;;;;;;;14.15;11.27;;;;;;;8.54;100.00;99677.13;4850983;29;20057;-87
2021/12/29 19:34:35;;;;;;;17.67;11.73;;;;;;;8.68;100.00;99702.81;4877463;29;20064;-87
2021/12/29 19:37:14;;;;;;;15.82;12.27;;;;;;;8.66;100.00;99710.81;4875350;29;20060;-87
2021/12/29 19:39:46;;;;;;;18.67;14.05;;;;;;;8.57;100.00;99676.97;4873728;29;20061;-87
2021/12/29 19:42:22;;;;;;;18.77;14.55;;;;;;;8.31;100.00;99628.13;4876133;29;20117;-87
2021/12/29 19:44:52;;;;;;;17.88;14.98;;;;;;;8.41;100.00;99657.56;4878229;29;20057;-86
2021/12/29 19:47:30;;;;;;;20.60;15.82;;;;;;;8.72;100.00;99721.06;4878662;29;20061;-87
2021/12/29 19:50:06;;;;;;;23.42;16.98;;;;;;;8.48;100.00;99679.22;4876963;29;20164;-86
2021/12/29 19:52:45;;;;;;;24.27;17.63;;;;;;;8.47;100.00;99667.81;4883346;29;20064;-86
2021/12/29 19:55:34;;;;;;;28.67;20.00;;;;;;;8.49;100.00;99678.31;4881549;29;20057;-87
2021/12/29 19:58:11;;;;;;;28.58;19.40;;;;;;;8.46;100.00;99676.66;4880808;29;20064;-86
2021/12/29 20:00:50;;;;;;;30.13;20.55;;;;;;;8.72;100.00;99721.06;4871793;29;20124;-86
2021/12/29 20:03:18;;;;;;;30.50;20.50;;;;;;;8.42;100.00;99667.19;4875872;29;20104;-87
2021/12/29 20:06:01;;;;;;;34.88;21.73;;;;;;;8.58;100.00;99691.88;4874486;29;20430;-87
2021/12/29 20:08:31;;;;;;;33.50;22.27;;;;;;;8.73;100.00;99709.59;4875741;29;20064;-87
2021/12/29 20:11:03;;;;;;;32.85;21.65;;;;;;;8.46;100.00;99660.84;4877602;29;20108;-85
2021/12/29 20:13:34;;;;;;;;;;;;;;;8.73;100.00;99704.31;4878062;29;20071;-86
2021/12/29 20:16:19;;;;;;;35.42;22.40;;;;;;;8.63;100.00;99687.25;4873881;29;19924;-87
2021/12/29 20:19:02;;;;;;;38.53;23.38;;;;;;;8.51;100.00;99674.63;4869055;29;20065;-87
2021/12/29 20:21:31;;;;;;;42.28;24.25;;;;;;;8.56;100.00;99693.75;4877229;29;20137;-87
2021/12/29 20:23:58;;;;;;;38.05;23.70;;;;;;;8.71;100.00;99724.66;4875358;29;20109;-87
2021/12/29 20:26:26;;;;;;;39.90;24.88;;;;;;;8.62;100.00;99708.44;4874995;29;20060;-87
2021/12/29 20:29:10;;;;;;;44.40;26.02;;;;;;;8.78;100.00;99731.34;4876906;29;20053;-86
2021/12/29 20:31:39;;;;;;;40.13;24.35;;;;;;;8.49;100.00;99670.38;4880714;29;20528;-86
2021/12/29 20:34:08;;;;;;;44.33;25.80;;;;;;;8.64;100.00;99704.78;4876848;29;20057;-87
2021/12/29 20:36:40;;;;;;;46.00;26.63;;;;;;;8.61;100.00;99701.44;4876448;29;20547;-87
2021/12/29 20:39:15;;;;;;;47.70;26.60;;;;;;;8.78;100.00;99739.25;4869786;29;20089;-87
2021/12/29 20:41:45;;;;;;;42.55;25.42;;;;;;;8.73;100.00;99728.06;4875886;29;20056;-87
2021/12/29 20:44:13;;;;;;;40.30;24.25;;;;;;;8.73;100.00;99733.34;4873062;29;20045;-88
2021/12/29 20:46:50;;;;;;;36.67;23.35;;;;;;;8.72;100.00;99726.34;4872672;29;20116;-87